createdAt,value
2022-09-09T00:01:28.540Z,15.10
2022-09-09T00:04:01.436Z,15.00
2022-09-09T00:06:31.750Z,15.00
2022-09-09T00:09:05.324Z,15.00
2022-09-09T00:11:41.553Z,15.00
2022-09-09T00:14:15.942Z,15.00
2022-09-09T00:16:51.422Z,15.00
2022-09-09T00:19:23.933Z,15.00
2022-09-09T00:21:59.594Z,15.20
2022-09-09T00:24:33.095Z,15.00
2022-09-09T00:27:06.604Z,15.00
2022-09-09T00:29:41.040Z,15.00
2022-09-09T00:32:14.484Z,15.00
2022-09-09T00:34:49.672Z,15.00
2022-09-09T00:37:17.696Z,15.00
2022-09-09T00:39:48.779Z,15.10
2022-09-09T00:42:18.803Z,15.10
2022-09-09T00:44:53.835Z,15.10
2022-09-09T00:47:48.611Z,15.00
2022-09-09T00:50:30.584Z,15.00
2022-09-09T00:53:06.892Z,15.00
2022-09-09T00:55:42.657Z,15.00
2022-09-09T00:58:10.202Z,15.00
2022-09-09T01:00:42.835Z,15.00
2022-09-09T01:03:28.126Z,15.00
2022-09-09T01:06:05.869Z,15.00
2022-09-09T01:09:06.785Z,15.00
2022-09-09T01:11:44.043Z,15.00
2022-09-09T01:14:21.807Z,14.90
2022-09-09T01:16:49.681Z,14.90
2022-09-09T01:19:27.744Z,15.00
2022-09-09T01:22:04.658Z,15.00
2022-09-09T01:24:41.506Z,15.00
2022-09-09T01:27:11.379Z,15.00
2022-09-09T01:29:39.054Z,15.00
2022-09-09T01:32:41.425Z,14.90
2022-09-09T01:35:14.166Z,14.90
2022-09-09T01:37:41.189Z,14.90
2022-09-09T01:44:15.059Z,14.80
2022-09-09T01:46:41.911Z,14.80
2022-09-09T01:49:09.884Z,14.80
2022-09-09T01:51:39.132Z,14.80
2022-09-09T01:54:07.417Z,14.80
2022-09-09T01:56:44.440Z,14.70
2022-09-09T01:59:28.554Z,14.70
2022-09-09T02:02:07.786Z,14.70
2022-09-09T02:04:39.637Z,14.80
2022-09-09T02:07:18.535Z,14.80
2022-09-09T02:09:50.881Z,14.80
2022-09-09T02:12:21.974Z,14.80
2022-09-09T02:14:56.314Z,14.80
2022-09-09T02:17:28.365Z,14.80
2022-09-09T02:20:01.200Z,14.90
2022-09-09T02:22:30.422Z,14.90
2022-09-09T02:25:00.007Z,14.90
2022-09-09T02:27:27.798Z,15.00
2022-09-09T02:30:01.362Z,14.90
2022-09-09T02:32:31.701Z,14.90
2022-09-09T02:35:01.774Z,14.90
2022-09-09T02:37:33.182Z,14.90
2022-09-09T02:40:00.200Z,15.00
2022-09-09T02:42:27.476Z,15.00
2022-09-09T02:44:55.828Z,14.90
2022-09-09T02:47:30.546Z,15.10
2022-09-09T02:50:05.044Z,15.00
2022-09-09T02:52:39.945Z,14.90
2022-09-09T02:55:13.517Z,14.80
2022-09-09T02:57:42.730Z,14.90
2022-09-09T03:00:12.641Z,14.80
2022-09-09T03:02:39.981Z,14.90
2022-09-09T03:05:07.857Z,14.90
2022-09-09T03:07:35.156Z,14.90
2022-09-09T03:10:02.180Z,14.90
2022-09-09T03:12:29.335Z,14.90
2022-09-09T03:14:56.278Z,14.90
2022-09-09T03:17:25.701Z,14.90
2022-09-09T03:19:55.344Z,14.90
2022-09-09T03:22:22.793Z,14.90
2022-09-09T03:24:49.659Z,14.90
2022-09-09T03:27:17.060Z,14.90
2022-09-09T03:29:43.910Z,14.90
2022-09-09T03:32:12.034Z,14.90
2022-09-09T03:34:41.190Z,14.80
2022-09-09T03:37:08.048Z,14.80
2022-09-09T03:39:34.830Z,14.80
2022-09-09T03:42:05.118Z,14.80
2022-09-09T03:44:32.016Z,14.80
2022-09-09T03:47:01.972Z,14.80
2022-09-09T03:49:31.411Z,14.80
2022-09-09T03:51:59.971Z,14.80
2022-09-09T03:54:26.792Z,14.80
2022-09-09T03:56:54.150Z,14.80
2022-09-09T03:59:22.201Z,14.80
2022-09-09T04:01:49.295Z,14.80
2022-09-09T04:04:16.093Z,14.90
2022-09-09T04:06:43.321Z,14.90
2022-09-09T04:09:11.492Z,14.90
2022-09-09T04:11:38.792Z,15.00
2022-09-09T04:14:06.962Z,15.00
2022-09-09T04:16:34.447Z,14.90
2022-09-09T04:19:02.257Z,15.00
2022-09-09T04:21:29.341Z,15.00
2022-09-09T04:23:56.182Z,15.00
2022-09-09T04:26:25.023Z,15.00
2022-09-09T04:28:51.993Z,15.10
2022-09-09T04:31:22.811Z,15.10
2022-09-09T04:33:50.332Z,15.10
2022-09-09T04:36:19.180Z,15.10
2022-09-09T04:38:46.547Z,15.10
2022-09-09T04:41:14.060Z,15.10
2022-09-09T04:43:42.186Z,15.10
2022-09-09T04:46:09.047Z,15.10
2022-09-09T04:48:36.442Z,15.10
2022-09-09T04:51:05.686Z,15.10
2022-09-09T04:53:35.193Z,15.10
2022-09-09T04:56:03.456Z,15.10
2022-09-09T04:58:30.578Z,15.10
2022-09-09T05:01:06.026Z,15.00
2022-09-09T05:03:33.238Z,15.20
2022-09-09T05:06:08.006Z,15.20
2022-09-09T05:08:35.790Z,15.20
2022-09-09T05:11:02.927Z,15.20
2022-09-09T05:13:30.220Z,15.20
2022-09-09T05:15:57.046Z,15.20
2022-09-09T05:18:25.550Z,15.30
2022-09-09T05:20:53.011Z,15.30
2022-09-09T05:23:20.308Z,15.40
2022-09-09T05:25:56.506Z,15.40
2022-09-09T05:28:23.996Z,15.40
2022-09-09T05:30:57.054Z,15.40
2022-09-09T05:33:26.997Z,15.40
2022-09-09T05:35:58.689Z,15.50
2022-09-09T05:38:28.702Z,15.50
2022-09-09T05:40:57.631Z,15.50
2022-09-09T05:43:25.770Z,15.60
2022-09-09T05:46:02.430Z,15.60
2022-09-09T05:48:31.730Z,15.70
2022-09-09T05:50:59.147Z,15.70
2022-09-09T05:53:26.627Z,15.60
2022-09-09T05:56:00.449Z,15.70
2022-09-09T05:58:27.653Z,15.70
2022-09-09T06:01:01.829Z,15.60
2022-09-09T06:03:29.086Z,15.70
2022-09-09T06:06:01.926Z,15.60
2022-09-09T06:08:29.637Z,15.60
2022-09-09T06:11:03.590Z,15.70
2022-09-09T06:13:31.313Z,15.70
2022-09-09T06:15:59.309Z,15.70
2022-09-09T06:18:27.086Z,15.90
2022-09-09T06:20:58.807Z,15.80
2022-09-09T06:23:27.997Z,15.90
2022-09-09T06:26:03.193Z,15.90
2022-09-09T06:28:30.603Z,16.00
2022-09-09T06:31:01.045Z,16.00
2022-09-09T06:33:31.917Z,16.10
2022-09-09T06:35:59.021Z,16.20
2022-09-09T06:38:27.419Z,16.20
2022-09-09T06:40:55.802Z,16.20
2022-09-09T06:43:23.335Z,16.30
2022-09-09T06:45:57.291Z,16.30
2022-09-09T06:48:24.926Z,16.40
2022-09-09T06:50:51.826Z,16.40
2022-09-09T06:53:20.467Z,16.40
2022-09-09T06:55:48.881Z,16.30
2022-09-09T06:58:15.793Z,16.40
2022-09-09T07:00:44.717Z,16.40
2022-09-09T07:03:12.028Z,16.40
2022-09-09T07:05:39.483Z,16.50
2022-09-09T07:08:06.726Z,16.60
2022-09-09T07:10:45.428Z,16.70
2022-09-09T07:13:16.521Z,16.80
2022-09-09T07:15:43.520Z,16.90
2022-09-09T07:18:11.295Z,16.90
2022-09-09T07:20:39.365Z,16.90
2022-09-09T07:23:06.335Z,16.90
2022-09-09T07:25:33.140Z,17.00
2022-09-09T07:28:00.007Z,17.10
2022-09-09T07:30:28.203Z,17.20
2022-09-09T07:32:57.940Z,17.30
2022-09-09T07:35:24.862Z,17.40
2022-09-09T07:37:51.961Z,17.50
2022-09-09T07:40:18.777Z,17.70
2022-09-09T07:42:46.504Z,17.80
2022-09-09T07:45:16.226Z,17.90
2022-09-09T07:47:44.796Z,17.90
2022-09-09T07:50:14.726Z,17.90
2022-09-09T07:52:42.421Z,17.90
2022-09-09T07:55:10.248Z,18.00
2022-09-09T07:57:37.155Z,18.00
2022-09-09T08:00:05.011Z,18.20
2022-09-09T08:02:31.777Z,18.30
2022-09-09T08:05:00.591Z,18.40
2022-09-09T08:07:28.035Z,18.50
2022-09-09T08:09:56.637Z,18.60
2022-09-09T08:12:24.878Z,18.60
2022-09-09T08:14:52.519Z,18.70
2022-09-09T08:17:19.604Z,18.80
2022-09-09T08:19:52.384Z,18.90
2022-09-09T08:22:20.871Z,18.70
2022-09-09T08:24:48.199Z,18.60
2022-09-09T08:27:16.006Z,18.50
2022-09-09T08:29:45.553Z,18.50
2022-09-09T08:32:12.456Z,18.40
2022-09-09T08:34:41.383Z,18.40
2022-09-09T08:37:08.821Z,18.40
2022-09-09T08:39:41.027Z,18.30
2022-09-09T08:42:25.239Z,18.30
2022-09-09T08:45:21.009Z,18.40
2022-09-09T08:48:10.282Z,18.40
2022-09-09T08:50:42.229Z,18.60
2022-09-09T08:53:17.592Z,18.60
2022-09-09T08:55:49.428Z,18.70
2022-09-09T08:58:21.741Z,18.80
2022-09-09T09:01:10.927Z,18.90
2022-09-09T09:03:49.155Z,18.90
2022-09-09T09:06:30.996Z,19.00
2022-09-09T09:09:04.194Z,19.00
2022-09-09T09:11:38.997Z,18.90
2022-09-09T09:14:13.262Z,18.90
2022-09-09T09:16:50.003Z,18.90
2022-09-09T09:19:19.241Z,18.90
2022-09-09T09:21:52.204Z,19.00
2022-09-09T09:24:22.282Z,19.10
2022-09-09T09:26:50.670Z,19.30
2022-09-09T09:29:20.768Z,19.20
2022-09-09T09:31:52.376Z,19.10
2022-09-09T09:34:19.455Z,19.10
2022-09-09T09:36:56.273Z,19.20
2022-09-09T09:42:18.889Z,19.30
2022-09-09T09:44:49.022Z,19.40
2022-09-09T09:47:17.487Z,19.40
2022-09-09T09:49:53.652Z,19.20
2022-09-09T09:52:24.920Z,19.10
2022-09-09T09:54:53.596Z,19.20
2022-09-09T09:57:30.152Z,19.30
2022-09-09T10:00:15.217Z,19.40
2022-09-09T10:02:44.957Z,19.50
2022-09-09T10:05:17.274Z,19.50
2022-09-09T10:07:46.831Z,19.50
2022-09-09T10:10:21.839Z,19.50
2022-09-09T10:13:01.938Z,19.50
2022-09-09T10:15:39.554Z,19.50
2022-09-09T10:18:22.565Z,19.70
2022-09-09T10:21:01.911Z,19.80
2022-09-09T10:23:48.575Z,19.90
2022-09-09T10:26:30.123Z,20.00
2022-09-09T10:29:19.210Z,19.90
2022-09-09T10:31:58.157Z,20.00
2022-09-09T10:34:43.792Z,20.00
2022-09-09T10:37:24.547Z,20.00
2022-09-09T10:40:02.557Z,20.00
2022-09-09T10:42:32.443Z,20.20
2022-09-09T10:45:14.787Z,20.30
2022-09-09T10:48:01.098Z,20.30
2022-09-09T10:51:00.592Z,20.40
2022-09-09T10:53:38.082Z,20.60
2022-09-09T10:56:13.341Z,20.80
2022-09-09T10:58:49.847Z,20.90
2022-09-09T11:01:27.394Z,20.60
2022-09-09T11:03:59.990Z,20.40
2022-09-09T11:06:33.897Z,20.30
2022-09-09T11:09:04.403Z,20.20
2022-09-09T11:11:38.321Z,20.20
2022-09-09T11:14:17.130Z,20.20
2022-09-09T11:16:52.018Z,20.20
2022-09-09T11:19:27.097Z,20.20
2022-09-09T11:21:56.865Z,20.20
2022-09-09T11:24:30.202Z,20.20
2022-09-09T11:27:06.615Z,20.30
2022-09-09T11:30:32.036Z,20.60
2022-09-09T11:33:39.622Z,20.40
2022-09-09T11:36:27.307Z,20.30
2022-09-09T11:39:01.885Z,20.30
2022-09-09T11:41:40.445Z,20.20
2022-09-09T11:44:21.108Z,20.00
2022-09-09T11:46:53.230Z,20.00
2022-09-09T11:49:32.504Z,19.90
2022-09-09T11:51:59.549Z,19.90
2022-09-09T11:54:31.377Z,20.00
2022-09-09T11:56:58.659Z,20.00
2022-09-09T11:59:27.831Z,19.90
2022-09-09T12:02:01.467Z,19.90
2022-09-09T12:04:52.812Z,20.00
2022-09-09T12:07:35.593Z,20.10
2022-09-09T12:10:06.812Z,20.20
2022-09-09T12:12:39.121Z,20.80
2022-09-09T12:15:30.227Z,21.40
2022-09-09T12:18:03.141Z,22.00
2022-09-09T12:20:37.110Z,22.20
2022-09-09T12:23:21.094Z,22.60
2022-09-09T12:26:05.864Z,22.50
2022-09-09T12:28:55.537Z,22.40
2022-09-09T12:31:26.860Z,22.40
2022-09-09T12:33:53.783Z,22.60
2022-09-09T12:36:25.930Z,22.70
2022-09-09T12:38:54.345Z,22.60
2022-09-09T12:41:23.756Z,22.80
2022-09-09T12:43:51.827Z,23.20
2022-09-09T12:46:33.078Z,23.60
2022-09-09T12:49:00.133Z,23.30
2022-09-09T12:51:31.272Z,23.20
2022-09-09T12:53:59.253Z,23.10
2022-09-09T12:56:30.020Z,22.70
2022-09-09T12:58:59.480Z,22.80
2022-09-09T13:01:29.410Z,23.00
2022-09-09T13:03:57.637Z,22.80
2022-09-09T13:06:29.074Z,22.70
2022-09-09T13:09:00.026Z,22.80
2022-09-09T13:11:31.720Z,22.80
2022-09-09T13:14:00.025Z,21.90
2022-09-09T13:16:31.397Z,21.50
2022-09-09T13:18:59.608Z,21.20
2022-09-09T13:21:35.445Z,21.10
2022-09-09T13:24:05.218Z,20.90
2022-09-09T13:26:32.129Z,20.90
2022-09-09T13:29:19.081Z,20.90
2022-09-09T13:31:47.041Z,21.10
2022-09-09T13:34:14.322Z,21.20
2022-09-09T13:36:42.439Z,21.80
2022-09-09T13:39:18.634Z,22.80
2022-09-09T13:41:47.752Z,23.30
2022-09-09T13:44:22.736Z,23.30
2022-09-09T13:47:06.772Z,23.60
2022-09-09T13:49:40.544Z,24.50
2022-09-09T13:52:13.050Z,25.30
2022-09-09T13:54:44.905Z,25.40
2022-09-09T13:57:19.171Z,24.80
2022-09-09T14:00:04.634Z,24.70
2022-09-09T14:02:33.835Z,24.90
2022-09-09T14:05:01.781Z,24.80
2022-09-09T14:07:30.070Z,24.80
2022-09-09T14:10:02.198Z,24.70
2022-09-09T14:12:30.152Z,24.90
2022-09-09T14:15:05.922Z,25.10
2022-09-09T14:17:34.551Z,25.20
2022-09-09T14:20:02.416Z,25.10
2022-09-09T14:22:30.081Z,25.10
2022-09-09T14:24:59.751Z,25.10
2022-09-09T14:27:27.825Z,25.30
2022-09-09T14:29:57.113Z,24.90
2022-09-09T14:32:25.232Z,24.90
2022-09-09T14:34:53.137Z,24.60
2022-09-09T14:37:21.912Z,24.50
2022-09-09T14:39:52.901Z,24.40
2022-09-09T14:42:23.276Z,24.20
2022-09-09T14:44:54.357Z,24.00
2022-09-09T14:47:21.813Z,23.70
2022-09-09T14:49:53.077Z,23.50
2022-09-09T14:52:22.582Z,23.10
2022-09-09T14:54:50.823Z,22.80
2022-09-09T14:57:18.610Z,22.50
2022-09-09T14:59:48.384Z,22.30
2022-09-09T15:02:16.862Z,22.10
2022-09-09T15:04:47.509Z,22.00
2022-09-09T15:07:20.728Z,21.90
2022-09-09T15:09:49.448Z,21.90
2022-09-09T15:12:26.927Z,22.00
2022-09-09T15:14:56.198Z,22.00
2022-09-09T15:17:28.639Z,22.00
2022-09-09T15:19:56.357Z,21.90
2022-09-09T15:22:26.102Z,21.90
2022-09-09T15:24:53.829Z,21.90
2022-09-09T15:27:26.246Z,21.90
2022-09-09T15:29:55.244Z,21.80
2022-09-09T15:32:22.959Z,21.80
2022-09-09T15:34:52.575Z,21.80
2022-09-09T15:37:23.261Z,21.80
2022-09-09T15:39:52.162Z,21.70
2022-09-09T15:42:20.323Z,21.80
2022-09-09T15:44:47.167Z,21.80
2022-09-09T15:47:16.482Z,21.80
2022-09-09T15:49:43.634Z,21.90
2022-09-09T15:52:12.813Z,22.00
2022-09-09T15:54:40.087Z,22.00
2022-09-09T15:57:10.971Z,21.90
2022-09-09T15:59:37.912Z,21.90
2022-09-09T16:02:06.448Z,21.90
2022-09-09T16:04:34.982Z,21.80
2022-09-09T16:07:04.140Z,22.20
2022-09-09T16:09:32.202Z,22.70
2022-09-09T16:12:02.069Z,23.10
2022-09-09T16:14:29.679Z,23.20
2022-09-09T16:16:57.592Z,23.20
2022-09-09T16:19:24.791Z,23.00
2022-09-09T16:21:52.904Z,22.80
2022-09-09T16:24:21.373Z,22.70
2022-09-09T16:26:50.785Z,22.50
2022-09-09T16:29:20.090Z,22.30
2022-09-09T16:31:48.049Z,22.20
2022-09-09T16:34:18.029Z,22.10
2022-09-09T16:36:45.896Z,21.90
2022-09-09T16:39:15.759Z,21.80
2022-09-09T16:41:44.800Z,21.80
2022-09-09T16:44:13.774Z,21.80
2022-09-09T16:46:42.861Z,21.70
2022-09-09T16:49:11.673Z,21.60
2022-09-09T16:51:40.930Z,21.50
2022-09-09T16:54:10.018Z,21.50
2022-09-09T16:56:42.098Z,21.40
2022-09-09T16:59:11.025Z,21.30
2022-09-09T17:01:39.610Z,21.20
2022-09-09T17:04:09.378Z,21.10
2022-09-09T17:06:37.780Z,21.00
2022-09-09T17:09:07.568Z,20.90
2022-09-09T17:11:35.968Z,20.80
2022-09-09T17:14:05.792Z,20.70
2022-09-09T17:16:35.437Z,20.60
2022-09-09T17:19:04.749Z,20.60
2022-09-09T17:21:33.608Z,20.50
2022-09-09T17:24:00.974Z,20.50
2022-09-09T17:26:30.593Z,20.40
2022-09-09T17:28:59.774Z,20.50
2022-09-09T17:31:30.029Z,20.30
2022-09-09T17:33:57.035Z,20.30
2022-09-09T17:36:26.684Z,20.20
2022-09-09T17:38:54.216Z,20.20
2022-09-09T17:41:23.814Z,20.10
2022-09-09T17:43:51.581Z,20.10
2022-09-09T17:46:22.634Z,20.00
2022-09-09T17:48:52.594Z,20.00
2022-09-09T17:51:25.619Z,19.90
2022-09-09T17:53:55.665Z,19.90
2022-09-09T17:56:24.839Z,19.80
2022-09-09T17:58:52.908Z,19.80
2022-09-09T18:01:22.276Z,19.70
2022-09-09T18:03:51.565Z,19.60
2022-09-09T18:06:21.030Z,19.60
2022-09-09T18:08:49.905Z,19.50
2022-09-09T18:11:18.271Z,19.50
2022-09-09T18:13:49.343Z,19.40
2022-09-09T18:16:18.869Z,19.50
2022-09-09T18:18:46.773Z,19.40
2022-09-09T18:21:15.127Z,19.40
2022-09-09T18:23:43.278Z,19.40
2022-09-09T18:26:12.459Z,19.30
2022-09-09T18:28:40.966Z,19.30
2022-09-09T18:31:09.545Z,19.40
2022-09-09T18:33:38.023Z,19.30
2022-09-09T18:36:07.293Z,19.20
2022-09-09T18:38:36.138Z,19.20
2022-09-09T18:41:14.529Z,19.20
2022-09-09T18:43:41.947Z,19.10
2022-09-09T18:46:09.542Z,19.10
2022-09-09T18:48:36.879Z,19.20
2022-09-09T18:51:04.880Z,19.10
2022-09-09T18:53:32.526Z,19.20
2022-09-09T18:56:02.467Z,19.20
2022-09-09T18:58:29.778Z,19.20
2022-09-09T19:00:56.849Z,19.20
2022-09-09T19:03:24.539Z,19.20
2022-09-09T19:05:51.509Z,19.20
2022-09-09T19:08:20.768Z,19.10
2022-09-09T19:10:48.295Z,19.10
2022-09-09T19:13:17.633Z,19.10
2022-09-09T19:15:44.742Z,19.10
2022-09-09T19:18:12.347Z,19.10
2022-09-09T19:20:39.589Z,19.00
2022-09-09T19:23:06.575Z,18.90
2022-09-09T19:25:37.403Z,18.90
2022-09-09T19:28:04.837Z,18.80
2022-09-09T19:30:35.496Z,18.80
2022-09-09T19:33:04.186Z,18.80
2022-09-09T19:35:31.460Z,18.80
2022-09-09T19:37:59.523Z,18.70
2022-09-09T19:40:26.876Z,18.70
2022-09-09T19:42:54.554Z,18.70
2022-09-09T19:45:21.591Z,18.70
2022-09-09T19:47:50.522Z,18.70
2022-09-09T19:50:17.532Z,18.60
2022-09-09T19:52:44.890Z,18.60
2022-09-09T19:55:12.197Z,18.70
2022-09-09T19:57:40.161Z,18.70
2022-09-09T20:00:08.958Z,18.70
2022-09-09T20:02:36.112Z,18.60
2022-09-09T20:05:06.929Z,18.70
2022-09-09T20:07:34.212Z,18.70
2022-09-09T20:10:01.579Z,18.70
2022-09-09T20:12:28.872Z,18.70
2022-09-09T20:14:55.987Z,18.70
2022-09-09T20:17:23.823Z,18.70
2022-09-09T20:19:50.665Z,18.70
2022-09-09T20:22:19.283Z,18.70
2022-09-09T20:24:46.211Z,18.70
2022-09-09T20:27:13.590Z,18.70
2022-09-09T20:29:41.092Z,18.70
2022-09-09T20:32:08.651Z,18.70
2022-09-09T20:34:35.474Z,18.60
2022-09-09T20:37:02.701Z,18.60
2022-09-09T20:39:30.996Z,18.60
2022-09-09T20:41:58.329Z,18.60
2022-09-09T20:44:26.008Z,18.50
2022-09-09T20:46:56.957Z,18.50
2022-09-09T20:49:24.652Z,18.60
2022-09-09T20:51:53.035Z,18.60
2022-09-09T20:54:23.342Z,18.80
2022-09-09T20:56:53.244Z,18.80
2022-09-09T20:59:23.056Z,18.80
2022-09-09T21:01:50.224Z,18.70
2022-09-09T21:04:19.022Z,18.60
2022-09-09T21:06:46.616Z,18.50
2022-09-09T21:09:14.309Z,18.40
2022-09-09T21:11:42.016Z,18.40
2022-09-09T21:14:11.044Z,18.40
2022-09-09T21:16:38.011Z,18.40
2022-09-09T21:19:05.662Z,18.40
2022-09-09T21:21:32.723Z,18.40
2022-09-09T21:24:00.608Z,18.40
2022-09-09T21:26:28.250Z,18.30
2022-09-09T21:28:55.888Z,18.30
2022-09-09T21:31:28.199Z,18.30
2022-09-09T21:33:55.623Z,18.30
2022-09-09T21:36:23.612Z,18.20
2022-09-09T21:38:51.366Z,18.20
2022-09-09T21:41:19.286Z,18.30
2022-09-09T21:43:51.627Z,18.30
2022-09-09T21:46:18.694Z,18.30
2022-09-09T21:48:46.909Z,18.20
2022-09-09T21:51:16.146Z,18.30
2022-09-09T21:53:43.547Z,18.30
2022-09-09T21:56:13.283Z,18.30
2022-09-09T21:58:43.299Z,18.30
2022-09-09T22:01:11.806Z,18.30
2022-09-09T22:03:39.327Z,18.30
2022-09-09T22:06:09.551Z,18.40
2022-09-09T22:08:36.962Z,18.40
2022-09-09T22:11:08.257Z,18.40
2022-09-09T22:13:36.720Z,18.30
2022-09-09T22:16:05.482Z,18.30
2022-09-09T22:18:32.696Z,18.30
2022-09-09T22:21:00.379Z,18.30
2022-09-09T22:23:29.602Z,18.20
2022-09-09T22:25:57.376Z,18.20
2022-09-09T22:28:24.181Z,18.10
2022-09-09T22:30:51.432Z,18.00
2022-09-09T22:33:20.801Z,18.00
2022-09-09T22:35:48.473Z,17.90
2022-09-09T22:38:17.386Z,17.90
2022-09-09T22:40:48.296Z,17.90
2022-09-09T22:43:17.220Z,17.90
2022-09-09T22:45:45.837Z,17.90
2022-09-09T22:48:13.669Z,17.90
2022-09-09T22:50:42.773Z,18.00
2022-09-09T22:53:13.336Z,17.80
2022-09-09T22:55:41.105Z,17.80
2022-09-09T22:58:10.677Z,17.70
2022-09-09T23:00:41.194Z,17.60
2022-09-09T23:03:08.310Z,17.70
2022-09-09T23:05:37.687Z,17.60
2022-09-09T23:08:04.677Z,17.60
2022-09-09T23:10:33.869Z,17.50
2022-09-09T23:13:00.972Z,17.50
2022-09-09T23:15:31.118Z,17.40
2022-09-09T23:17:59.025Z,17.40
2022-09-09T23:20:27.466Z,17.30
2022-09-09T23:22:54.428Z,17.20
2022-09-09T23:25:21.638Z,17.20
2022-09-09T23:27:48.743Z,17.20
2022-09-09T23:30:16.122Z,17.20
2022-09-09T23:32:46.878Z,17.10
2022-09-09T23:35:13.953Z,17.20
2022-09-09T23:37:40.935Z,17.20
2022-09-09T23:40:08.863Z,17.30
2022-09-09T23:42:36.170Z,17.30
2022-09-09T23:45:02.978Z,17.20
2022-09-09T23:47:30.124Z,17.20
2022-09-09T23:49:58.632Z,17.20
2022-09-09T23:52:26.966Z,17.10
2022-09-09T23:54:53.829Z,17.20
2022-09-09T23:57:22.141Z,17.10
2022-09-09T23:59:48.999Z,17.20
